sensor_id;sensor_type;location;lat;lon;timestamp;pressure;altitude;pressure_sealevel;temperature;humidity
74798;BME280;63326;45.088;7.658;2023-12-14T00:01:46;97676.22;;;4.81;100.00
74798;BME280;63326;45.088;7.658;2023-12-14T00:04:13;97680.25;;;4.77;100.00
74798;BME280;63326;45.088;7.658;2023-12-14T00:06:39;97668.16;;;4.74;100.00
74798;BME280;63326;45.088;7.658;2023-12-14T00:09:06;97646.81;;;4.52;100.00
74798;BME280;63326;45.088;7.658;2023-12-14T00:11:38;97605.00;;;4.14;100.00
74798;BME280;63326;45.088;7.658;2023-12-14T00:14:06;97616.25;;;4.25;100.00
74798;BME280;63326;45.088;7.658;2023-12-14T00:16:33;97677.56;;;4.54;100.00
74798;BME280;63326;45.088;7.658;2023-12-14T00:19:00;97622.06;;;4.20;100.00
74798;BME280;63326;45.088;7.658;2023-12-14T00:21:27;97679.78;;;4.42;100.00
74798;BME280;63326;45.088;7.658;2023-12-14T00:23:54;97684.22;;;4.50;100.00
74798;BME280;63326;45.088;7.658;2023-12-14T00:26:20;97627.13;;;4.07;100.00
74798;BME280;63326;45.088;7.658;2023-12-14T00:28:47;97638.19;;;4.18;100.00
74798;BME280;63326;45.088;7.658;2023-12-14T00:31:14;97677.97;;;4.43;100.00
74798;BME280;63326;45.088;7.658;2023-12-14T00:33:41;97617.69;;;3.96;100.00
74798;BME280;63326;45.088;7.658;2023-12-14T00:36:08;97669.75;;;4.22;100.00
74798;BME280;63326;45.088;7.658;2023-12-14T00:38:34;97687.97;;;4.33;100.00
74798;BME280;63326;45.088;7.658;2023-12-14T00:41:01;97694.94;;;4.34;100.00
74798;BME280;63326;45.088;7.658;2023-12-14T00:43:28;97703.03;;;4.40;100.00
74798;BME280;63326;45.088;7.658;2023-12-14T00:45:54;97681.81;;;4.32;100.00
74798;BME280;63326;45.088;7.658;2023-12-14T00:48:21;97687.09;;;4.40;100.00
74798;BME280;63326;45.088;7.658;2023-12-14T00:50:48;97664.94;;;4.17;100.00
74798;BME280;63326;45.088;7.658;2023-12-14T00:53:14;97667.25;;;4.20;100.00
74798;BME280;63326;45.088;7.658;2023-12-14T00:55:41;97699.72;;;4.38;100.00
74798;BME280;63326;45.088;7.658;2023-12-14T00:58:08;97721.59;;;4.48;100.00
74798;BME280;63326;45.088;7.658;2023-12-14T01:00:35;97627.84;;;3.93;100.00
74798;BME280;63326;45.088;7.658;2023-12-14T01:03:02;97631.81;;;3.88;100.00
74798;BME280;63326;45.088;7.658;2023-12-14T01:05:29;97715.38;;;4.33;100.00
74798;BME280;63326;45.088;7.658;2023-12-14T01:07:56;97662.56;;;3.91;100.00
74798;BME280;63326;45.088;7.658;2023-12-14T01:10:22;97711.75;;;4.18;100.00
74798;BME280;63326;45.088;7.658;2023-12-14T01:12:49;97730.81;;;4.30;100.00
74798;BME280;63326;45.088;7.658;2023-12-14T01:15:16;97677.13;;;3.95;100.00
74798;BME280;63326;45.088;7.658;2023-12-14T01:17:43;97718.41;;;4.22;100.00
74798;BME280;63326;45.088;7.658;2023-12-14T01:20:10;97732.63;;;4.37;100.00
74798;BME280;63326;45.088;7.658;2023-12-14T01:22:37;97702.47;;;4.14;100.00
74798;BME280;63326;45.088;7.658;2023-12-14T01:25:04;97702.97;;;4.17;100.00
74798;BME280;63326;45.088;7.658;2023-12-14T01:27:31;97750.81;;;4.57;100.00
74798;BME280;63326;45.088;7.658;2023-12-14T01:29:57;97761.28;;;4.58;100.00
74798;BME280;63326;45.088;7.658;2023-12-14T01:32:24;97745.41;;;4.42;100.00
74798;BME280;63326;45.088;7.658;2023-12-14T01:34:50;97718.16;;;4.40;100.00
74798;BME280;63326;45.088;7.658;2023-12-14T01:37:17;97754.66;;;4.54;100.00
74798;BME280;63326;45.088;7.658;2023-12-14T01:39:44;97727.31;;;4.37;100.00
74798;BME280;63326;45.088;7.658;2023-12-14T01:42:10;97714.75;;;4.23;100.00
74798;BME280;63326;45.088;7.658;2023-12-14T01:44:37;97737.75;;;4.39;100.00
74798;BME280;63326;45.088;7.658;2023-12-14T01:47:04;97756.63;;;4.60;100.00
74798;BME280;63326;45.088;7.658;2023-12-14T01:49:30;97755.88;;;4.43;100.00
74798;BME280;63326;45.088;7.658;2023-12-14T01:51:57;97767.66;;;4.41;100.00
74798;BME280;63326;45.088;7.658;2023-12-14T01:54:24;97772.31;;;4.39;100.00
74798;BME280;63326;45.088;7.658;2023-12-14T01:56:51;97770.00;;;4.36;100.00
74798;BME280;63326;45.088;7.658;2023-12-14T01:59:18;97785.94;;;4.44;100.00
74798;BME280;63326;45.088;7.658;2023-12-14T02:01:47;97753.09;;;4.20;100.00
74798;BME280;63326;45.088;7.658;2023-12-14T02:04:19;97790.59;;;4.42;100.00
74798;BME280;63326;45.088;7.658;2023-12-14T02:06:45;97760.25;;;4.20;100.00
74798;BME280;63326;45.088;7.658;2023-12-14T02:09:12;97767.44;;;4.11;100.00
74798;BME280;63326;45.088;7.658;2023-12-14T02:11:38;97803.75;;;4.27;100.00
74798;BME280;63326;45.088;7.658;2023-12-14T02:14:06;97793.81;;;4.13;100.00
74798;BME280;63326;45.088;7.658;2023-12-14T02:16:33;97761.97;;;3.88;100.00
74798;BME280;63326;45.088;7.658;2023-12-14T02:19:00;97798.78;;;4.16;100.00
74798;BME280;63326;45.088;7.658;2023-12-14T02:21:27;97790.34;;;4.12;100.00
74798;BME280;63326;45.088;7.658;2023-12-14T02:23:54;97777.53;;;4.16;100.00
74798;BME280;63326;45.088;7.658;2023-12-14T02:26:21;97791.63;;;4.25;100.00
74798;BME280;63326;45.088;7.658;2023-12-14T02:28:47;97819.00;;;4.41;100.00
74798;BME280;63326;45.088;7.658;2023-12-14T02:31:15;97782.66;;;4.26;100.00
74798;BME280;63326;45.088;7.658;2023-12-14T02:33:41;97817.19;;;4.42;100.00
74798;BME280;63326;45.088;7.658;2023-12-14T02:36:08;97793.94;;;4.28;100.00
74798;BME280;63326;45.088;7.658;2023-12-14T02:38:35;97816.38;;;4.25;100.00
74798;BME280;63326;45.088;7.658;2023-12-14T02:41:02;97804.75;;;4.10;100.00
74798;BME280;63326;45.088;7.658;2023-12-14T02:43:29;97825.03;;;4.19;100.00
74798;BME280;63326;45.088;7.658;2023-12-14T02:45:56;97843.13;;;4.24;100.00
74798;BME280;63326;45.088;7.658;2023-12-14T02:48:28;97807.28;;;4.03;100.00
74798;BME280;63326;45.088;7.658;2023-12-14T02:50:56;97847.59;;;4.31;100.00
74798;BME280;63326;45.088;7.658;2023-12-14T02:53:22;97782.56;;;3.95;100.00
74798;BME280;63326;45.088;7.658;2023-12-14T02:55:49;97842.25;;;4.31;100.00
74798;BME280;63326;45.088;7.658;2023-12-14T02:58:19;97832.00;;;4.20;100.00
74798;BME280;63326;45.088;7.658;2023-12-14T03:00:45;97821.88;;;4.07;100.00
74798;BME280;63326;45.088;7.658;2023-12-14T03:03:12;97841.97;;;4.18;100.00
74798;BME280;63326;45.088;7.658;2023-12-14T03:05:39;97831.50;;;4.08;100.00
74798;BME280;63326;45.088;7.658;2023-12-14T03:08:06;97834.34;;;4.07;100.00
74798;BME280;63326;45.088;7.658;2023-12-14T03:10:32;97845.97;;;4.06;100.00
74798;BME280;63326;45.088;7.658;2023-12-14T03:12:59;97819.75;;;3.86;100.00
74798;BME280;63326;45.088;7.658;2023-12-14T03:15:26;97805.47;;;3.71;100.00
74798;BME280;63326;45.088;7.658;2023-12-14T03:17:52;97831.19;;;3.62;100.00
74798;BME280;63326;45.088;7.658;2023-12-14T03:20:19;97829.69;;;3.44;100.00
74798;BME280;63326;45.088;7.658;2023-12-14T03:22:45;97826.00;;;3.20;100.00
74798;BME280;63326;45.088;7.658;2023-12-14T03:25:12;97794.91;;;2.96;100.00
74798;BME280;63326;45.088;7.658;2023-12-14T03:27:39;97834.56;;;3.06;100.00
74798;BME280;63326;45.088;7.658;2023-12-14T03:30:06;97779.59;;;2.74;100.00
74798;BME280;63326;45.088;7.658;2023-12-14T03:32:36;97841.97;;;2.94;100.00
74798;BME280;63326;45.088;7.658;2023-12-14T03:35:04;97859.69;;;2.86;100.00
74798;BME280;63326;45.088;7.658;2023-12-14T03:37:31;97868.13;;;2.81;100.00
74798;BME280;63326;45.088;7.658;2023-12-14T03:39:58;97854.66;;;2.74;100.00
74798;BME280;63326;45.088;7.658;2023-12-14T03:42:24;97801.97;;;2.37;100.00
74798;BME280;63326;45.088;7.658;2023-12-14T03:44:51;97829.22;;;2.56;100.00
74798;BME280;63326;45.088;7.658;2023-12-14T03:47:18;97822.69;;;2.42;100.00
74798;BME280;63326;45.088;7.658;2023-12-14T03:49:44;97816.63;;;2.24;100.00
74798;BME280;63326;45.088;7.658;2023-12-14T03:52:11;97826.66;;;2.12;100.00
74798;BME280;63326;45.088;7.658;2023-12-14T03:54:37;97860.97;;;2.22;100.00
74798;BME280;63326;45.088;7.658;2023-12-14T03:57:04;97875.88;;;2.23;100.00
74798;BME280;63326;45.088;7.658;2023-12-14T03:59:31;97868.66;;;2.07;100.00
74798;BME280;63326;45.088;7.658;2023-12-14T04:01:59;97880.59;;;2.11;100.00
74798;BME280;63326;45.088;7.658;2023-12-14T04:04:26;97834.13;;;1.91;100.00
74798;BME280;63326;45.088;7.658;2023-12-14T04:06:52;97860.56;;;2.08;100.00
74798;BME280;63326;45.088;7.658;2023-12-14T04:09:19;97865.97;;;1.99;100.00
74798;BME280;63326;45.088;7.658;2023-12-14T04:11:46;97870.03;;;1.93;100.00
74798;BME280;63326;45.088;7.658;2023-12-14T04:14:13;97853.09;;;1.86;100.00
74798;BME280;63326;45.088;7.658;2023-12-14T04:16:39;97888.63;;;2.01;100.00
74798;BME280;63326;45.088;7.658;2023-12-14T04:19:06;97829.31;;;1.68;100.00
74798;BME280;63326;45.088;7.658;2023-12-14T04:21:36;97881.59;;;2.10;100.00
74798;BME280;63326;45.088;7.658;2023-12-14T04:24:03;97873.81;;;1.91;100.00
74798;BME280;63326;45.088;7.658;2023-12-14T04:26:30;97891.00;;;1.86;100.00
74798;BME280;63326;45.088;7.658;2023-12-14T04:28:57;97912.19;;;1.86;100.00
74798;BME280;63326;45.088;7.658;2023-12-14T04:31:24;97870.06;;;1.57;100.00
74798;BME280;63326;45.088;7.658;2023-12-14T04:33:51;97883.72;;;1.53;100.00
74798;BME280;63326;45.088;7.658;2023-12-14T04:36:17;97889.41;;;1.58;100.00
74798;BME280;63326;45.088;7.658;2023-12-14T04:38:44;97907.25;;;1.74;100.00
74798;BME280;63326;45.088;7.658;2023-12-14T04:41:13;97905.53;;;1.82;100.00
74798;BME280;63326;45.088;7.658;2023-12-14T04:43:40;97869.59;;;1.44;100.00
74798;BME280;63326;45.088;7.658;2023-12-14T04:46:07;97937.66;;;1.70;100.00
74798;BME280;63326;45.088;7.658;2023-12-14T04:48:33;97912.84;;;1.35;100.00
74798;BME280;63326;45.088;7.658;2023-12-14T04:51:00;97905.09;;;1.24;100.00
74798;BME280;63326;45.088;7.658;2023-12-14T04:53:27;97916.78;;;1.21;100.00
74798;BME280;63326;45.088;7.658;2023-12-14T04:55:54;97921.34;;;1.29;100.00
74798;BME280;63326;45.088;7.658;2023-12-14T04:58:20;97949.78;;;1.45;100.00
74798;BME280;63326;45.088;7.658;2023-12-14T05:00:47;97914.84;;;1.23;100.00
74798;BME280;63326;45.088;7.658;2023-12-14T05:03:14;97902.56;;;1.05;100.00
74798;BME280;63326;45.088;7.658;2023-12-14T05:05:41;97909.22;;;1.09;100.00
74798;BME280;63326;45.088;7.658;2023-12-14T05:08:07;97855.31;;;0.92;100.00
74798;BME280;63326;45.088;7.658;2023-12-14T05:10:34;97846.28;;;0.94;100.00
74798;BME280;63326;45.088;7.658;2023-12-14T05:13:02;97937.06;;;1.30;100.00
74798;BME280;63326;45.088;7.658;2023-12-14T05:15:29;97899.81;;;0.96;100.00
74798;BME280;63326;45.088;7.658;2023-12-14T05:17:57;97932.59;;;1.03;100.00
74798;BME280;63326;45.088;7.658;2023-12-14T05:20:24;97938.00;;;1.12;100.00
74798;BME280;63326;45.088;7.658;2023-12-14T05:22:51;97903.72;;;0.92;100.00
74798;BME280;63326;45.088;7.658;2023-12-14T05:25:17;97923.56;;;1.06;100.00
74798;BME280;63326;45.088;7.658;2023-12-14T05:27:44;97946.16;;;1.28;100.00
74798;BME280;63326;45.088;7.658;2023-12-14T05:30:11;97942.09;;;1.06;100.00
74798;BME280;63326;45.088;7.658;2023-12-14T05:32:38;97964.50;;;0.92;100.00
74798;BME280;63326;45.088;7.658;2023-12-14T05:35:06;97944.84;;;0.77;100.00
74798;BME280;63326;45.088;7.658;2023-12-14T05:37:32;97963.03;;;0.80;100.00
74798;BME280;63326;45.088;7.658;2023-12-14T05:39:59;97963.53;;;0.93;100.00
74798;BME280;63326;45.088;7.658;2023-12-14T05:42:26;97942.09;;;1.06;100.00
74798;BME280;63326;45.088;7.658;2023-12-14T05:44:52;97977.41;;;1.15;100.00
74798;BME280;63326;45.088;7.658;2023-12-14T05:47:19;97959.81;;;0.86;100.00
74798;BME280;63326;45.088;7.658;2023-12-14T05:49:46;98005.53;;;1.06;100.00
74798;BME280;63326;45.088;7.658;2023-12-14T05:52:12;97927.94;;;0.51;100.00
74798;BME280;63326;45.088;7.658;2023-12-14T05:54:39;97984.72;;;0.84;100.00
74798;BME280;63326;45.088;7.658;2023-12-14T05:57:06;97999.75;;;0.83;100.00
74798;BME280;63326;45.088;7.658;2023-12-14T05:59:33;97995.84;;;0.87;100.00
74798;BME280;63326;45.088;7.658;2023-12-14T06:02:00;97956.59;;;0.92;100.00
74798;BME280;63326;45.088;7.658;2023-12-14T06:04:27;97967.38;;;1.09;100.00
74798;BME280;63326;45.088;7.658;2023-12-14T06:06:54;97995.41;;;1.29;100.00
74798;BME280;63326;45.088;7.658;2023-12-14T06:09:21;97969.53;;;0.95;100.00
74798;BME280;63326;45.088;7.658;2023-12-14T06:11:51;97965.38;;;0.83;100.00
74798;BME280;63326;45.088;7.658;2023-12-14T06:14:18;98006.13;;;0.90;100.00
74798;BME280;63326;45.088;7.658;2023-12-14T06:16:45;97928.41;;;0.36;100.00
74798;BME280;63326;45.088;7.658;2023-12-14T06:19:12;98021.19;;;0.80;100.00
74798;BME280;63326;45.088;7.658;2023-12-14T06:21:40;97957.28;;;0.48;100.00
74798;BME280;63326;45.088;7.658;2023-12-14T06:24:07;98011.34;;;1.10;100.00
74798;BME280;63326;45.088;7.658;2023-12-14T06:26:34;97993.00;;;1.08;100.00
74798;BME280;63326;45.088;7.658;2023-12-14T06:29:00;98005.63;;;1.14;100.00
74798;BME280;63326;45.088;7.658;2023-12-14T06:31:27;97983.63;;;0.77;100.00
74798;BME280;63326;45.088;7.658;2023-12-14T06:33:54;98032.41;;;0.92;100.00
74798;BME280;63326;45.088;7.658;2023-12-14T06:36:26;97964.75;;;0.62;100.00
74798;BME280;63326;45.088;7.658;2023-12-14T06:38:59;97973.31;;;0.83;100.00
74798;BME280;63326;45.088;7.658;2023-12-14T06:41:27;98022.22;;;1.07;100.00
74798;BME280;63326;45.088;7.658;2023-12-14T06:43:55;98013.75;;;0.93;100.00
74798;BME280;63326;45.088;7.658;2023-12-14T06:46:22;98046.47;;;0.92;100.00
74798;BME280;63326;45.088;7.658;2023-12-14T06:48:49;97967.72;;;0.30;100.00
74798;BME280;63326;45.088;7.658;2023-12-14T06:51:16;98005.53;;;0.50;100.00
74798;BME280;63326;45.088;7.658;2023-12-14T06:53:43;97982.03;;;0.37;100.00
74798;BME280;63326;45.088;7.658;2023-12-14T06:56:10;98041.94;;;0.65;100.00
74798;BME280;63326;45.088;7.658;2023-12-14T06:58:39;98047.78;;;0.69;100.00
74798;BME280;63326;45.088;7.658;2023-12-14T07:01:07;98036.66;;;0.65;100.00
74798;BME280;63326;45.088;7.658;2023-12-14T07:03:34;98008.59;;;0.55;100.00
74798;BME280;63326;45.088;7.658;2023-12-14T07:06:00;98060.50;;;0.93;100.00
74798;BME280;63326;45.088;7.658;2023-12-14T07:08:27;98055.78;;;0.96;100.00
74798;BME280;63326;45.088;7.658;2023-12-14T07:10:54;98028.28;;;0.80;100.00
74798;BME280;63326;45.088;7.658;2023-12-14T07:13:21;98029.78;;;0.82;100.00
74798;BME280;63326;45.088;7.658;2023-12-14T07:15:48;98082.88;;;1.18;100.00
74798;BME280;63326;45.088;7.658;2023-12-14T07:18:15;98067.69;;;1.20;100.00
74798;BME280;63326;45.088;7.658;2023-12-14T07:20:42;97996.53;;;0.89;100.00
74798;BME280;63326;45.088;7.658;2023-12-14T07:23:08;98045.81;;;1.27;100.00
74798;BME280;63326;45.088;7.658;2023-12-14T07:25:35;98030.22;;;1.24;100.00
74798;BME280;63326;45.088;7.658;2023-12-14T07:28:02;98108.56;;;1.72;100.00
74798;BME280;63326;45.088;7.658;2023-12-14T07:30:29;98013.03;;;1.11;100.00
74798;BME280;63326;45.088;7.658;2023-12-14T07:32:56;98077.72;;;1.53;100.00
74798;BME280;63326;45.088;7.658;2023-12-14T07:35:22;98106.06;;;1.71;100.00
74798;BME280;63326;45.088;7.658;2023-12-14T07:37:50;98097.44;;;1.69;100.00
74798;BME280;63326;45.088;7.658;2023-12-14T07:40:16;98085.59;;;1.73;100.00
74798;BME280;63326;45.088;7.658;2023-12-14T07:42:43;98098.19;;;1.88;100.00
74798;BME280;63326;45.088;7.658;2023-12-14T07:45:10;98106.50;;;1.94;100.00
74798;BME280;63326;45.088;7.658;2023-12-14T07:47:37;98123.97;;;2.14;100.00
74798;BME280;63326;45.088;7.658;2023-12-14T07:50:04;98112.72;;;2.30;100.00
74798;BME280;63326;45.088;7.658;2023-12-14T07:52:31;98107.22;;;2.41;100.00
74798;BME280;63326;45.088;7.658;2023-12-14T07:54:58;98099.44;;;3.01;100.00
74798;BME280;63326;45.088;7.658;2023-12-14T07:57:25;98113.69;;;4.12;100.00
74798;BME280;63326;45.088;7.658;2023-12-14T07:59:51;98096.50;;;4.89;100.00
74798;BME280;63326;45.088;7.658;2023-12-14T08:02:18;98090.72;;;5.82;100.00
74798;BME280;63326;45.088;7.658;2023-12-14T08:04:45;98145.94;;;7.20;100.00
74798;BME280;63326;45.088;7.658;2023-12-14T08:07:12;98102.00;;;8.05;100.00
74798;BME280;63326;45.088;7.658;2023-12-14T08:09:38;98114.78;;;8.96;100.00
74798;BME280;63326;45.088;7.658;2023-12-14T08:12:05;98079.44;;;9.07;100.00
74798;BME280;63326;45.088;7.658;2023-12-14T08:14:33;98119.50;;;9.37;100.00
74798;BME280;63326;45.088;7.658;2023-12-14T08:17:03;98149.75;;;9.87;100.00
74798;BME280;63326;45.088;7.658;2023-12-14T08:19:31;98129.38;;;10.34;99.98
74798;BME280;63326;45.088;7.658;2023-12-14T08:21:58;98148.44;;;11.06;100.00
74798;BME280;63326;45.088;7.658;2023-12-14T08:24:25;98161.94;;;11.39;93.34
74798;BME280;63326;45.088;7.658;2023-12-14T08:26:51;98157.53;;;12.05;94.63
74798;BME280;63326;45.088;7.658;2023-12-14T08:29:18;98156.94;;;12.67;87.12
74798;BME280;63326;45.088;7.658;2023-12-14T08:31:45;98196.06;;;12.76;84.46
74798;BME280;63326;45.088;7.658;2023-12-14T08:34:11;98187.84;;;13.41;81.19
74798;BME280;63326;45.088;7.658;2023-12-14T08:36:38;98179.59;;;13.67;77.77
74798;BME280;63326;45.088;7.658;2023-12-14T08:39:05;98165.53;;;13.59;77.03
74798;BME280;63326;45.088;7.658;2023-12-14T08:41:31;98172.75;;;13.65;70.01
74798;BME280;63326;45.088;7.658;2023-12-14T08:43:58;98165.59;;;12.31;72.30
74798;BME280;63326;45.088;7.658;2023-12-14T08:46:25;98165.59;;;11.25;75.65
74798;BME280;63326;45.088;7.658;2023-12-14T08:48:51;98180.94;;;11.38;76.65
74798;BME280;63326;45.088;7.658;2023-12-14T08:51:19;98210.09;;;12.14;67.11
74798;BME280;63326;45.088;7.658;2023-12-14T08:53:47;98183.00;;;12.29;65.07
74798;BME280;63326;45.088;7.658;2023-12-14T08:56:14;98215.34;;;12.80;62.32
74798;BME280;63326;45.088;7.658;2023-12-14T08:58:40;98201.66;;;13.58;56.39
74798;BME280;63326;45.088;7.658;2023-12-14T09:01:07;98205.53;;;13.68;56.13
74798;BME280;63326;45.088;7.658;2023-12-14T09:03:34;98214.72;;;14.11;53.87
74798;BME280;63326;45.088;7.658;2023-12-14T09:06:01;98156.53;;;14.15;51.47
74798;BME280;63326;45.088;7.658;2023-12-14T09:08:31;98232.09;;;14.58;51.81
74798;BME280;63326;45.088;7.658;2023-12-14T09:10:58;98215.00;;;14.82;50.84
74798;BME280;63326;45.088;7.658;2023-12-14T09:13:25;98245.41;;;15.45;49.28
74798;BME280;63326;45.088;7.658;2023-12-14T09:15:51;98242.78;;;16.10;47.06
74798;BME280;63326;45.088;7.658;2023-12-14T09:18:20;98242.69;;;16.40;45.48
74798;BME280;63326;45.088;7.658;2023-12-14T09:20:49;98238.41;;;15.97;46.08
74798;BME280;63326;45.088;7.658;2023-12-14T09:23:16;98266.34;;;16.21;46.07
74798;BME280;63326;45.088;7.658;2023-12-14T09:25:43;98259.19;;;15.55;47.30
74798;BME280;63326;45.088;7.658;2023-12-14T09:28:10;98270.50;;;15.82;46.76
74798;BME280;63326;45.088;7.658;2023-12-14T09:30:36;98280.97;;;15.48;48.27
74798;BME280;63326;45.088;7.658;2023-12-14T09:33:03;98247.75;;;15.71;47.30
74798;BME280;63326;45.088;7.658;2023-12-14T09:35:30;98280.31;;;15.94;47.26
74798;BME280;63326;45.088;7.658;2023-12-14T09:37:57;98294.03;;;16.23;46.01
74798;BME280;63326;45.088;7.658;2023-12-14T09:40:23;98265.00;;;15.88;46.43
74798;BME280;63326;45.088;7.658;2023-12-14T09:42:50;98288.34;;;16.13;45.77
74798;BME280;63326;45.088;7.658;2023-12-14T09:45:17;98249.03;;;16.10;44.98
74798;BME280;63326;45.088;7.658;2023-12-14T09:47:44;98255.56;;;15.79;45.64
74798;BME280;63326;45.088;7.658;2023-12-14T09:50:12;98262.66;;;16.04;45.41
74798;BME280;63326;45.088;7.658;2023-12-14T09:52:41;98270.66;;;15.98;45.25
74798;BME280;63326;45.088;7.658;2023-12-14T09:55:12;98252.97;;;15.54;45.81
74798;BME280;63326;45.088;7.658;2023-12-14T09:57:38;98308.41;;;15.82;45.83
74798;BME280;63326;45.088;7.658;2023-12-14T10:00:06;98282.88;;;15.29;46.30
74798;BME280;63326;45.088;7.658;2023-12-14T10:02:37;98321.84;;;14.42;48.79
74798;BME280;63326;45.088;7.658;2023-12-14T10:05:08;98270.63;;;14.53;48.67
74798;BME280;63326;45.088;7.658;2023-12-14T10:07:43;98304.13;;;14.71;48.19
74798;BME280;63326;45.088;7.658;2023-12-14T10:10:12;98321.72;;;14.05;50.48
74798;BME280;63326;45.088;7.658;2023-12-14T10:12:53;98318.22;;;14.05;50.65
74798;BME280;63326;45.088;7.658;2023-12-14T10:15:20;98318.81;;;13.75;51.71
74798;BME280;63326;45.088;7.658;2023-12-14T10:17:54;98320.59;;;13.56;51.91
74798;BME280;63326;45.088;7.658;2023-12-14T10:20:21;98306.34;;;13.29;52.54
74798;BME280;63326;45.088;7.658;2023-12-14T10:22:49;98289.09;;;13.44;52.49
74798;BME280;63326;45.088;7.658;2023-12-14T10:25:19;98295.44;;;13.62;52.02
74798;BME280;63326;45.088;7.658;2023-12-14T10:27:46;98314.59;;;13.86;51.03
74798;BME280;63326;45.088;7.658;2023-12-14T10:30:14;98306.16;;;13.76;50.40
74798;BME280;63326;45.088;7.658;2023-12-14T10:32:41;98323.03;;;13.64;52.44
74798;BME280;63326;45.088;7.658;2023-12-14T10:35:08;98294.19;;;13.20;52.88
74798;BME280;63326;45.088;7.658;2023-12-14T10:37:37;98318.00;;;13.75;52.27
74798;BME280;63326;45.088;7.658;2023-12-14T10:40:09;98259.00;;;13.40;51.95
74798;BME280;63326;45.088;7.658;2023-12-14T10:42:38;98303.84;;;13.41;52.49
74798;BME280;63326;45.088;7.658;2023-12-14T10:45:05;98298.31;;;13.67;52.06
74798;BME280;63326;45.088;7.658;2023-12-14T10:47:46;98324.66;;;14.04;51.98
74798;BME280;63326;45.088;7.658;2023-12-14T10:50:14;98325.25;;;14.06;51.51
74798;BME280;63326;45.088;7.658;2023-12-14T10:52:42;98302.59;;;13.82;51.38
74798;BME280;63326;45.088;7.658;2023-12-14T10:55:40;98310.06;;;13.80;52.13
74798;BME280;63326;45.088;7.658;2023-12-14T10:58:09;98313.03;;;13.72;52.52
74798;BME280;63326;45.088;7.658;2023-12-14T11:00:36;98301.25;;;13.91;51.29
74798;BME280;63326;45.088;7.658;2023-12-14T11:03:04;98288.22;;;13.50;52.24
74798;BME280;63326;45.088;7.658;2023-12-14T11:05:32;98316.31;;;13.29;53.14
74798;BME280;63326;45.088;7.658;2023-12-14T11:08:02;98305.03;;;13.00;53.57
74798;BME280;63326;45.088;7.658;2023-12-14T11:10:40;98275.47;;;12.80;54.06
74798;BME280;63326;45.088;7.658;2023-12-14T11:13:10;98308.81;;;12.86;54.56
74798;BME280;63326;45.088;7.658;2023-12-14T11:15:39;98321.00;;;12.89;54.91
74798;BME280;63326;45.088;7.658;2023-12-14T11:20:48;98310.06;;;12.77;54.57
74798;BME280;63326;45.088;7.658;2023-12-14T11:25:52;98271.59;;;11.90;56.49
74798;BME280;63326;45.088;7.658;2023-12-14T11:28:25;98284.31;;;11.35;59.06
74798;BME280;63326;45.088;7.658;2023-12-14T11:30:54;98328.16;;;11.29;60.93
74798;BME280;63326;45.088;7.658;2023-12-14T11:33:23;98333.03;;;11.06;62.82
74798;BME280;63326;45.088;7.658;2023-12-14T11:35:51;98314.63;;;10.75;62.86
74798;BME280;63326;45.088;7.658;2023-12-14T11:38:21;98329.69;;;10.69;63.50
74798;BME280;63326;45.088;7.658;2023-12-14T11:40:50;98281.09;;;10.30;64.16
74798;BME280;63326;45.088;7.658;2023-12-14T11:43:17;98322.09;;;10.45;64.64
74798;BME280;63326;45.088;7.658;2023-12-14T11:45:47;98330.78;;;10.47;65.39
74798;BME280;63326;45.088;7.658;2023-12-14T11:48:14;98336.38;;;10.52;65.66
74798;BME280;63326;45.088;7.658;2023-12-14T11:50:42;98334.16;;;10.56;65.19
74798;BME280;63326;45.088;7.658;2023-12-14T11:53:10;98295.97;;;10.32;64.61
74798;BME280;63326;45.088;7.658;2023-12-14T11:55:40;98279.38;;;10.22;64.77
74798;BME280;63326;45.088;7.658;2023-12-14T11:58:08;98352.28;;;10.53;65.23
74798;BME280;63326;45.088;7.658;2023-12-14T12:00:35;98325.13;;;10.35;64.70
74798;BME280;63326;45.088;7.658;2023-12-14T12:05:37;98349.69;;;10.39;65.57
74798;BME280;63326;45.088;7.658;2023-12-14T12:08:05;98308.47;;;10.18;66.06
74798;BME280;63326;45.088;7.658;2023-12-14T12:10:32;98283.97;;;10.00;65.60
74798;BME280;63326;45.088;7.658;2023-12-14T12:13:07;98356.81;;;10.53;65.89
74798;BME280;63326;45.088;7.658;2023-12-14T12:15:34;98360.19;;;10.62;64.05
74798;BME280;63326;45.088;7.658;2023-12-14T12:18:06;98349.72;;;10.73;64.22
74798;BME280;63326;45.088;7.658;2023-12-14T12:20:34;98322.38;;;10.57;64.23
74798;BME280;63326;45.088;7.658;2023-12-14T12:23:01;98292.72;;;10.43;63.78
74798;BME280;63326;45.088;7.658;2023-12-14T12:25:33;98315.38;;;10.62;63.85
74798;BME280;63326;45.088;7.658;2023-12-14T12:28:02;98347.88;;;10.74;63.91
74798;BME280;63326;45.088;7.658;2023-12-14T12:30:30;98324.59;;;10.53;63.85
74798;BME280;63326;45.088;7.658;2023-12-14T12:32:57;98345.06;;;10.54;63.97
74798;BME280;63326;45.088;7.658;2023-12-14T12:35:25;98324.44;;;10.27;65.02
74798;BME280;63326;45.088;7.658;2023-12-14T12:37:52;98347.41;;;10.36;65.18
74798;BME280;63326;45.088;7.658;2023-12-14T12:40:23;98335.25;;;10.40;64.75
74798;BME280;63326;45.088;7.658;2023-12-14T12:42:52;98333.94;;;10.29;64.11
74798;BME280;63326;45.088;7.658;2023-12-14T12:45:19;98346.81;;;10.40;65.01
74798;BME280;63326;45.088;7.658;2023-12-14T12:47:48;98265.97;;;9.94;64.46
74798;BME280;63326;45.088;7.658;2023-12-14T12:50:15;98290.56;;;10.25;63.93
74798;BME280;63326;45.088;7.658;2023-12-14T12:52:42;98345.53;;;10.64;63.49
74798;BME280;63326;45.088;7.658;2023-12-14T12:55:09;98301.47;;;10.52;62.40
74798;BME280;63326;45.088;7.658;2023-12-14T12:57:37;98323.06;;;10.65;63.86
74798;BME280;63326;45.088;7.658;2023-12-14T13:00:04;98317.63;;;10.59;62.88
74798;BME280;63326;45.088;7.658;2023-12-14T13:02:34;98329.06;;;10.74;62.77
74798;BME280;63326;45.088;7.658;2023-12-14T13:05:01;98312.69;;;10.62;61.76
74798;BME280;63326;45.088;7.658;2023-12-14T13:07:28;98305.44;;;10.56;62.63
74798;BME280;63326;45.088;7.658;2023-12-14T13:09:55;98353.38;;;10.87;62.96